sensor_id;sensor_type;location;lat;lon;timestamp;P1;durP1;ratioP1;P2;durP2;ratioP2
11486;SDS011;10510;47.942;9.442;2023-04-25T00:00:25;5.45;;;2.47;;
11486;SDS011;10510;47.942;9.442;2023-04-25T00:02:26;3.92;;;2.55;;
11486;SDS011;10510;47.942;9.442;2023-04-25T00:04:28;6.85;;;2.83;;
11486;SDS011;10510;47.942;9.442;2023-04-25T00:06:29;4.75;;;2.70;;
11486;SDS011;10510;47.942;9.442;2023-04-25T00:08:31;5.43;;;2.88;;
11486;SDS011;10510;47.942;9.442;2023-04-25T00:10:32;6.15;;;2.80;;
11486;SDS011;10510;47.942;9.442;2023-04-25T00:12:32;6.95;;;2.58;;
11486;SDS011;10510;47.942;9.442;2023-04-25T00:14:33;6.25;;;3.13;;
11486;SDS011;10510;47.942;9.442;2023-04-25T00:16:34;6.53;;;3.17;;
11486;SDS011;10510;47.942;9.442;2023-04-25T00:18:34;4.85;;;2.50;;
11486;SDS011;10510;47.942;9.442;2023-04-25T00:20:35;5.50;;;2.55;;
11486;SDS011;10510;47.942;9.442;2023-04-25T00:22:35;3.97;;;3.35;;
11486;SDS011;10510;47.942;9.442;2023-04-25T00:24:37;6.55;;;2.63;;
11486;SDS011;10510;47.942;9.442;2023-04-25T00:26:37;6.03;;;3.13;;
11486;SDS011;10510;47.942;9.442;2023-04-25T00:28:38;4.85;;;2.78;;
11486;SDS011;10510;47.942;9.442;2023-04-25T00:30:39;3.90;;;2.60;;
11486;SDS011;10510;47.942;9.442;2023-04-25T00:32:40;6.32;;;2.70;;
11486;SDS011;10510;47.942;9.442;2023-04-25T00:34:40;3.75;;;2.25;;
11486;SDS011;10510;47.942;9.442;2023-04-25T00:36:41;3.97;;;1.98;;
11486;SDS011;10510;47.942;9.442;2023-04-25T00:38:41;5.10;;;1.95;;
11486;SDS011;10510;47.942;9.442;2023-04-25T00:40:41;3.85;;;1.75;;
11486;SDS011;10510;47.942;9.442;2023-04-25T00:42:43;4.95;;;2.10;;
11486;SDS011;10510;47.942;9.442;2023-04-25T00:44:45;3.65;;;2.03;;
11486;SDS011;10510;47.942;9.442;2023-04-25T00:46:46;3.35;;;2.08;;
11486;SDS011;10510;47.942;9.442;2023-04-25T00:48:48;4.60;;;2.15;;
11486;SDS011;10510;47.942;9.442;2023-04-25T00:50:52;7.75;;;2.60;;
11486;SDS011;10510;47.942;9.442;2023-04-25T00:52:56;3.28;;;2.00;;
11486;SDS011;10510;47.942;9.442;2023-04-25T00:54:57;7.88;;;2.70;;
11486;SDS011;10510;47.942;9.442;2023-04-25T00:56:57;3.70;;;2.20;;
11486;SDS011;10510;47.942;9.442;2023-04-25T00:58:57;3.53;;;2.40;;
11486;SDS011;10510;47.942;9.442;2023-04-25T01:00:58;3.25;;;2.22;;
11486;SDS011;10510;47.942;9.442;2023-04-25T01:02:58;4.50;;;2.60;;
11486;SDS011;10510;47.942;9.442;2023-04-25T01:05:00;4.10;;;2.05;;
11486;SDS011;10510;47.942;9.442;2023-04-25T01:07:00;3.60;;;2.33;;
11486;SDS011;10510;47.942;9.442;2023-04-25T01:09:02;5.18;;;2.47;;
11486;SDS011;10510;47.942;9.442;2023-04-25T01:11:05;4.13;;;2.65;;
11486;SDS011;10510;47.942;9.442;2023-04-25T01:13:06;4.55;;;2.53;;
11486;SDS011;10510;47.942;9.442;2023-04-25T01:15:06;5.53;;;2.90;;
11486;SDS011;10510;47.942;9.442;2023-04-25T01:17:07;3.80;;;2.60;;
11486;SDS011;10510;47.942;9.442;2023-04-25T01:19:09;5.80;;;2.35;;
11486;SDS011;10510;47.942;9.442;2023-04-25T01:21:13;4.63;;;2.63;;
11486;SDS011;10510;47.942;9.442;2023-04-25T01:23:14;5.95;;;2.95;;
11486;SDS011;10510;47.942;9.442;2023-04-25T01:25:15;6.50;;;2.47;;
11486;SDS011;10510;47.942;9.442;2023-04-25T01:27:15;6.25;;;3.35;;
11486;SDS011;10510;47.942;9.442;2023-04-25T01:29:17;5.75;;;2.60;;
11486;SDS011;10510;47.942;9.442;2023-04-25T01:31:18;4.53;;;2.70;;
11486;SDS011;10510;47.942;9.442;2023-04-25T01:33:18;5.35;;;2.00;;
11486;SDS011;10510;47.942;9.442;2023-04-25T01:35:20;6.82;;;2.83;;
11486;SDS011;10510;47.942;9.442;2023-04-25T01:37:21;6.97;;;2.55;;
11486;SDS011;10510;47.942;9.442;2023-04-25T01:39:22;3.25;;;2.08;;
11486;SDS011;10510;47.942;9.442;2023-04-25T01:41:23;5.97;;;2.58;;
11486;SDS011;10510;47.942;9.442;2023-04-25T01:43:23;3.78;;;2.35;;
11486;SDS011;10510;47.942;9.442;2023-04-25T01:45:24;4.63;;;2.17;;
11486;SDS011;10510;47.942;9.442;2023-04-25T01:47:25;6.50;;;2.78;;
11486;SDS011;10510;47.942;9.442;2023-04-25T01:49:25;5.90;;;2.60;;
11486;SDS011;10510;47.942;9.442;2023-04-25T01:51:25;7.03;;;2.80;;
11486;SDS011;10510;47.942;9.442;2023-04-25T01:53:26;5.43;;;2.65;;
11486;SDS011;10510;47.942;9.442;2023-04-25T01:55:26;3.55;;;2.50;;
11486;SDS011;10510;47.942;9.442;2023-04-25T01:57:27;5.60;;;2.35;;
11486;SDS011;10510;47.942;9.442;2023-04-25T01:59:27;7.95;;;3.03;;
11486;SDS011;10510;47.942;9.442;2023-04-25T02:01:27;6.50;;;2.67;;
11486;SDS011;10510;47.942;9.442;2023-04-25T02:03:28;8.10;;;2.67;;
11486;SDS011;10510;47.942;9.442;2023-04-25T02:05:33;3.95;;;2.05;;
11486;SDS011;10510;47.942;9.442;2023-04-25T02:07:35;4.10;;;2.35;;
11486;SDS011;10510;47.942;9.442;2023-04-25T02:09:35;7.13;;;2.55;;
11486;SDS011;10510;47.942;9.442;2023-04-25T02:11:36;3.65;;;2.35;;
11486;SDS011;10510;47.942;9.442;2023-04-25T02:13:36;3.22;;;1.90;;
11486;SDS011;10510;47.942;9.442;2023-04-25T02:15:36;4.30;;;1.95;;
11486;SDS011;10510;47.942;9.442;2023-04-25T02:17:36;3.90;;;2.20;;
11486;SDS011;10510;47.942;9.442;2023-04-25T02:19:37;4.65;;;1.90;;
11486;SDS011;10510;47.942;9.442;2023-04-25T02:21:38;5.78;;;2.15;;
11486;SDS011;10510;47.942;9.442;2023-04-25T02:23:38;4.90;;;2.35;;
11486;SDS011;10510;47.942;9.442;2023-04-25T02:25:38;5.03;;;1.83;;
11486;SDS011;10510;47.942;9.442;2023-04-25T02:27:39;5.70;;;2.15;;
11486;SDS011;10510;47.942;9.442;2023-04-25T02:29:39;3.80;;;2.20;;
11486;SDS011;10510;47.942;9.442;2023-04-25T02:31:39;3.70;;;2.30;;
11486;SDS011;10510;47.942;9.442;2023-04-25T02:33:39;5.25;;;2.33;;
11486;SDS011;10510;47.942;9.442;2023-04-25T02:35:40;5.93;;;2.58;;
11486;SDS011;10510;47.942;9.442;2023-04-25T02:37:40;6.57;;;2.80;;
11486;SDS011;10510;47.942;9.442;2023-04-25T02:39:40;5.40;;;2.50;;
11486;SDS011;10510;47.942;9.442;2023-04-25T02:41:40;7.07;;;2.55;;
11486;SDS011;10510;47.942;9.442;2023-04-25T02:43:41;4.50;;;2.50;;
11486;SDS011;10510;47.942;9.442;2023-04-25T02:45:41;7.35;;;2.17;;
11486;SDS011;10510;47.942;9.442;2023-04-25T02:47:41;5.13;;;2.40;;
11486;SDS011;10510;47.942;9.442;2023-04-25T02:49:42;7.20;;;2.95;;
11486;SDS011;10510;47.942;9.442;2023-04-25T02:51:42;5.55;;;2.35;;
11486;SDS011;10510;47.942;9.442;2023-04-25T02:53:42;7.53;;;2.85;;
11486;SDS011;10510;47.942;9.442;2023-04-25T02:55:44;7.22;;;2.00;;
11486;SDS011;10510;47.942;9.442;2023-04-25T02:57:44;4.22;;;2.10;;
11486;SDS011;10510;47.942;9.442;2023-04-25T02:59:44;6.85;;;2.65;;
11486;SDS011;10510;47.942;9.442;2023-04-25T03:01:44;5.20;;;2.03;;
11486;SDS011;10510;47.942;9.442;2023-04-25T03:03:45;4.53;;;2.25;;
11486;SDS011;10510;47.942;9.442;2023-04-25T03:05:45;5.35;;;2.30;;
11486;SDS011;10510;47.942;9.442;2023-04-25T03:07:46;4.32;;;2.55;;
11486;SDS011;10510;47.942;9.442;2023-04-25T03:09:47;6.88;;;2.03;;
11486;SDS011;10510;47.942;9.442;2023-04-25T03:11:47;5.50;;;2.10;;
11486;SDS011;10510;47.942;9.442;2023-04-25T03:13:47;5.82;;;2.20;;
11486;SDS011;10510;47.942;9.442;2023-04-25T03:15:47;3.53;;;2.15;;
11486;SDS011;10510;47.942;9.442;2023-04-25T03:17:48;8.60;;;1.95;;
11486;SDS011;10510;47.942;9.442;2023-04-25T03:19:48;4.22;;;2.17;;
11486;SDS011;10510;47.942;9.442;2023-04-25T03:21:48;5.28;;;2.00;;
11486;SDS011;10510;47.942;9.442;2023-04-25T03:23:48;3.45;;;2.10;;
11486;SDS011;10510;47.942;9.442;2023-04-25T03:25:49;5.25;;;2.22;;
11486;SDS011;10510;47.942;9.442;2023-04-25T03:27:49;7.75;;;4.00;;
11486;SDS011;10510;47.942;9.442;2023-04-25T03:29:49;6.82;;;3.40;;
11486;SDS011;10510;47.942;9.442;2023-04-25T03:31:50;8.60;;;3.38;;
11486;SDS011;10510;47.942;9.442;2023-04-25T03:33:50;37.10;;;16.17;;
11486;SDS011;10510;47.942;9.442;2023-04-25T03:35:50;113.82;;;37.63;;
11486;SDS011;10510;47.942;9.442;2023-04-25T03:37:51;122.03;;;37.13;;
11486;SDS011;10510;47.942;9.442;2023-04-25T03:39:51;21.73;;;9.10;;
11486;SDS011;10510;47.942;9.442;2023-04-25T03:41:51;31.00;;;11.10;;
11486;SDS011;10510;47.942;9.442;2023-04-25T03:43:52;21.25;;;7.53;;
11486;SDS011;10510;47.942;9.442;2023-04-25T03:45:52;10.30;;;4.72;;
11486;SDS011;10510;47.942;9.442;2023-04-25T03:47:52;7.05;;;3.22;;
11486;SDS011;10510;47.942;9.442;2023-04-25T03:49:52;5.97;;;3.38;;
11486;SDS011;10510;47.942;9.442;2023-04-25T03:51:53;5.55;;;3.38;;
11486;SDS011;10510;47.942;9.442;2023-04-25T03:53:53;12.85;;;6.63;;
11486;SDS011;10510;47.942;9.442;2023-04-25T03:55:53;12.57;;;5.72;;
11486;SDS011;10510;47.942;9.442;2023-04-25T03:57:53;6.82;;;4.32;;
11486;SDS011;10510;47.942;9.442;2023-04-25T03:59:54;8.45;;;3.45;;
11486;SDS011;10510;47.942;9.442;2023-04-25T04:01:54;8.60;;;4.20;;
11486;SDS011;10510;47.942;9.442;2023-04-25T04:03:55;5.85;;;2.97;;
11486;SDS011;10510;47.942;9.442;2023-04-25T04:05:55;5.65;;;3.17;;
11486;SDS011;10510;47.942;9.442;2023-04-25T04:07:55;5.25;;;3.40;;
11486;SDS011;10510;47.942;9.442;2023-04-25T04:09:55;6.13;;;3.58;;
11486;SDS011;10510;47.942;9.442;2023-04-25T04:11:56;6.82;;;4.32;;
11486;SDS011;10510;47.942;9.442;2023-04-25T04:13:56;10.02;;;3.92;;
11486;SDS011;10510;47.942;9.442;2023-04-25T04:15:56;8.68;;;4.00;;
11486;SDS011;10510;47.942;9.442;2023-04-25T04:17:57;7.30;;;3.60;;
11486;SDS011;10510;47.942;9.442;2023-04-25T04:20:02;5.55;;;3.03;;
11486;SDS011;10510;47.942;9.442;2023-04-25T04:22:03;5.15;;;2.80;;
11486;SDS011;10510;47.942;9.442;2023-04-25T04:24:03;7.22;;;2.83;;
11486;SDS011;10510;47.942;9.442;2023-04-25T04:26:05;6.82;;;3.20;;
11486;SDS011;10510;47.942;9.442;2023-04-25T04:28:07;6.55;;;2.95;;
11486;SDS011;10510;47.942;9.442;2023-04-25T04:30:07;7.22;;;3.47;;
11486;SDS011;10510;47.942;9.442;2023-04-25T04:32:08;4.75;;;3.42;;
11486;SDS011;10510;47.942;9.442;2023-04-25T04:34:08;6.38;;;3.53;;
11486;SDS011;10510;47.942;9.442;2023-04-25T04:36:09;7.97;;;3.38;;
11486;SDS011;10510;47.942;9.442;2023-04-25T04:38:09;4.55;;;2.67;;
11486;SDS011;10510;47.942;9.442;2023-04-25T04:40:11;6.90;;;3.33;;
11486;SDS011;10510;47.942;9.442;2023-04-25T04:42:12;9.93;;;3.00;;
11486;SDS011;10510;47.942;9.442;2023-04-25T04:44:12;5.95;;;3.20;;
11486;SDS011;10510;47.942;9.442;2023-04-25T04:46:13;7.53;;;4.05;;
11486;SDS011;10510;47.942;9.442;2023-04-25T04:48:14;8.35;;;3.65;;
11486;SDS011;10510;47.942;9.442;2023-04-25T04:50:14;6.43;;;3.60;;
11486;SDS011;10510;47.942;9.442;2023-04-25T04:52:16;10.80;;;3.95;;
11486;SDS011;10510;47.942;9.442;2023-04-25T04:54:16;9.93;;;4.05;;
11486;SDS011;10510;47.942;9.442;2023-04-25T04:56:16;5.55;;;3.47;;
11486;SDS011;10510;47.942;9.442;2023-04-25T04:58:17;11.30;;;4.55;;
11486;SDS011;10510;47.942;9.442;2023-04-25T05:00:17;8.63;;;4.15;;
11486;SDS011;10510;47.942;9.442;2023-04-25T05:02:18;8.73;;;4.18;;
11486;SDS011;10510;47.942;9.442;2023-04-25T05:04:18;10.23;;;5.13;;
11486;SDS011;10510;47.942;9.442;2023-04-25T05:06:18;8.13;;;5.55;;
11486;SDS011;10510;47.942;9.442;2023-04-25T05:08:19;9.27;;;5.18;;
11486;SDS011;10510;47.942;9.442;2023-04-25T05:10:19;8.23;;;4.93;;
11486;SDS011;10510;47.942;9.442;2023-04-25T05:12:20;10.68;;;5.05;;
11486;SDS011;10510;47.942;9.442;2023-04-25T05:14:20;11.30;;;5.20;;
11486;SDS011;10510;47.942;9.442;2023-04-25T05:16:21;13.70;;;5.38;;
11486;SDS011;10510;47.942;9.442;2023-04-25T05:18:22;10.02;;;5.15;;
11486;SDS011;10510;47.942;9.442;2023-04-25T05:20:22;8.07;;;4.70;;
11486;SDS011;10510;47.942;9.442;2023-04-25T05:22:22;10.68;;;4.93;;
11486;SDS011;10510;47.942;9.442;2023-04-25T05:24:22;7.50;;;4.85;;
11486;SDS011;10510;47.942;9.442;2023-04-25T05:26:23;10.25;;;4.15;;
11486;SDS011;10510;47.942;9.442;2023-04-25T05:28:23;10.20;;;4.00;;
11486;SDS011;10510;47.942;9.442;2023-04-25T05:30:24;9.25;;;3.83;;
11486;SDS011;10510;47.942;9.442;2023-04-25T05:32:24;8.82;;;3.70;;
11486;SDS011;10510;47.942;9.442;2023-04-25T05:34:25;8.43;;;4.00;;
11486;SDS011;10510;47.942;9.442;2023-04-25T05:36:25;12.55;;;4.18;;
11486;SDS011;10510;47.942;9.442;2023-04-25T05:38:26;5.70;;;3.53;;
11486;SDS011;10510;47.942;9.442;2023-04-25T05:40:26;7.93;;;3.28;;
11486;SDS011;10510;47.942;9.442;2023-04-25T05:42:26;5.95;;;4.05;;
11486;SDS011;10510;47.942;9.442;2023-04-25T05:44:27;9.57;;;3.42;;
11486;SDS011;10510;47.942;9.442;2023-04-25T05:46:28;5.60;;;3.20;;
11486;SDS011;10510;47.942;9.442;2023-04-25T05:48:28;5.57;;;3.38;;
11486;SDS011;10510;47.942;9.442;2023-04-25T05:50:28;6.68;;;4.00;;
11486;SDS011;10510;47.942;9.442;2023-04-25T05:52:28;11.98;;;6.55;;
11486;SDS011;10510;47.942;9.442;2023-04-25T05:54:29;11.68;;;4.97;;
11486;SDS011;10510;47.942;9.442;2023-04-25T05:56:29;10.45;;;4.97;;
11486;SDS011;10510;47.942;9.442;2023-04-25T05:58:29;7.22;;;4.00;;
11486;SDS011;10510;47.942;9.442;2023-04-25T06:00:30;5.60;;;3.42;;
11486;SDS011;10510;47.942;9.442;2023-04-25T06:02:30;6.68;;;3.00;;
11486;SDS011;10510;47.942;9.442;2023-04-25T06:04:30;6.43;;;2.90;;
11486;SDS011;10510;47.942;9.442;2023-04-25T06:06:30;8.07;;;3.72;;
11486;SDS011;10510;47.942;9.442;2023-04-25T06:08:31;10.63;;;3.85;;
11486;SDS011;10510;47.942;9.442;2023-04-25T06:10:32;9.02;;;3.92;;
11486;SDS011;10510;47.942;9.442;2023-04-25T06:12:32;7.38;;;3.90;;
11486;SDS011;10510;47.942;9.442;2023-04-25T06:14:33;9.75;;;5.18;;
11486;SDS011;10510;47.942;9.442;2023-04-25T06:16:33;13.45;;;6.32;;
11486;SDS011;10510;47.942;9.442;2023-04-25T06:18:34;11.05;;;3.83;;
11486;SDS011;10510;47.942;9.442;2023-04-25T06:20:34;11.52;;;3.58;;
11486;SDS011;10510;47.942;9.442;2023-04-25T06:22:34;9.98;;;3.78;;
11486;SDS011;10510;47.942;9.442;2023-04-25T06:24:35;9.43;;;3.20;;
11486;SDS011;10510;47.942;9.442;2023-04-25T06:26:35;5.80;;;2.63;;
11486;SDS011;10510;47.942;9.442;2023-04-25T06:28:36;4.35;;;2.50;;
11486;SDS011;10510;47.942;9.442;2023-04-25T06:30:36;5.97;;;2.85;;
11486;SDS011;10510;47.942;9.442;2023-04-25T06:32:36;5.65;;;2.95;;
11486;SDS011;10510;47.942;9.442;2023-04-25T06:34:36;5.68;;;3.45;;
11486;SDS011;10510;47.942;9.442;2023-04-25T06:36:37;6.97;;;2.83;;
11486;SDS011;10510;47.942;9.442;2023-04-25T06:38:37;8.52;;;2.53;;
11486;SDS011;10510;47.942;9.442;2023-04-25T06:40:37;6.07;;;2.90;;
11486;SDS011;10510;47.942;9.442;2023-04-25T06:42:38;6.32;;;2.85;;
11486;SDS011;10510;47.942;9.442;2023-04-25T06:44:38;7.15;;;2.60;;
11486;SDS011;10510;47.942;9.442;2023-04-25T06:46:38;4.32;;;2.28;;
11486;SDS011;10510;47.942;9.442;2023-04-25T06:48:39;7.50;;;2.40;;
11486;SDS011;10510;47.942;9.442;2023-04-25T06:50:39;6.57;;;2.95;;
11486;SDS011;10510;47.942;9.442;2023-04-25T06:52:39;4.93;;;2.33;;
11486;SDS011;10510;47.942;9.442;2023-04-25T06:54:39;10.98;;;2.65;;
11486;SDS011;10510;47.942;9.442;2023-04-25T06:56:40;5.93;;;2.65;;
11486;SDS011;10510;47.942;9.442;2023-04-25T06:58:40;5.57;;;2.08;;
11486;SDS011;10510;47.942;9.442;2023-04-25T07:00:40;7.90;;;3.13;;
11486;SDS011;10510;47.942;9.442;2023-04-25T07:02:40;8.85;;;3.90;;
11486;SDS011;10510;47.942;9.442;2023-04-25T07:04:43;6.65;;;3.42;;
11486;SDS011;10510;47.942;9.442;2023-04-25T07:06:43;5.07;;;2.70;;
11486;SDS011;10510;47.942;9.442;2023-04-25T07:08:44;6.60;;;2.58;;
11486;SDS011;10510;47.942;9.442;2023-04-25T07:10:45;4.85;;;2.45;;
11486;SDS011;10510;47.942;9.442;2023-04-25T07:12:46;9.13;;;2.15;;
11486;SDS011;10510;47.942;9.442;2023-04-25T07:14:46;6.38;;;3.03;;
11486;SDS011;10510;47.942;9.442;2023-04-25T07:16:46;7.22;;;1.83;;
11486;SDS011;10510;47.942;9.442;2023-04-25T07:18:46;4.28;;;2.17;;
11486;SDS011;10510;47.942;9.442;2023-04-25T07:20:47;6.05;;;2.22;;
11486;SDS011;10510;47.942;9.442;2023-04-25T07:22:47;4.65;;;2.80;;
11486;SDS011;10510;47.942;9.442;2023-04-25T07:24:47;5.30;;;3.00;;
11486;SDS011;10510;47.942;9.442;2023-04-25T07:26:48;3.22;;;1.80;;
11486;SDS011;10510;47.942;9.442;2023-04-25T07:28:48;8.90;;;2.42;;
11486;SDS011;10510;47.942;9.442;2023-04-25T07:30:51;8.60;;;3.33;;
11486;SDS011;10510;47.942;9.442;2023-04-25T07:32:51;5.05;;;2.45;;
11486;SDS011;10510;47.942;9.442;2023-04-25T07:34:51;5.15;;;2.10;;
11486;SDS011;10510;47.942;9.442;2023-04-25T07:36:51;4.85;;;2.22;;
11486;SDS011;10510;47.942;9.442;2023-04-25T07:38:52;7.18;;;2.38;;
11486;SDS011;10510;47.942;9.442;2023-04-25T07:40:52;8.45;;;2.13;;
11486;SDS011;10510;47.942;9.442;2023-04-25T07:42:53;9.18;;;3.05;;
11486;SDS011;10510;47.942;9.442;2023-04-25T07:44:53;6.43;;;2.10;;
11486;SDS011;10510;47.942;9.442;2023-04-25T07:46:53;5.88;;;2.38;;
11486;SDS011;10510;47.942;9.442;2023-04-25T07:48:53;3.15;;;2.40;;
11486;SDS011;10510;47.942;9.442;2023-04-25T07:50:54;4.72;;;2.55;;
11486;SDS011;10510;47.942;9.442;2023-04-25T07:52:54;9.07;;;2.72;;
11486;SDS011;10510;47.942;9.442;2023-04-25T07:54:54;6.53;;;2.80;;
11486;SDS011;10510;47.942;9.442;2023-04-25T07:56:55;5.10;;;2.15;;
11486;SDS011;10510;47.942;9.442;2023-04-25T07:58:56;6.80;;;2.47;;
11486;SDS011;10510;47.942;9.442;2023-04-25T08:00:56;5.22;;;2.70;;
11486;SDS011;10510;47.942;9.442;2023-04-25T08:02:56;9.43;;;2.40;;
11486;SDS011;10510;47.942;9.442;2023-04-25T08:04:56;10.57;;;6.50;;
11486;SDS011;10510;47.942;9.442;2023-04-25T08:06:57;14.13;;;9.70;;
11486;SDS011;10510;47.942;9.442;2023-04-25T08:08:57;8.85;;;5.55;;
11486;SDS011;10510;47.942;9.442;2023-04-25T08:10:57;10.88;;;4.30;;
11486;SDS011;10510;47.942;9.442;2023-04-25T08:12:58;11.23;;;6.00;;
11486;SDS011;10510;47.942;9.442;2023-04-25T08:14:59;11.20;;;3.10;;
11486;SDS011;10510;47.942;9.442;2023-04-25T08:16:59;7.20;;;3.40;;
11486;SDS011;10510;47.942;9.442;2023-04-25T08:18:59;5.28;;;2.90;;
11486;SDS011;10510;47.942;9.442;2023-04-25T08:21:00;9.38;;;3.08;;
11486;SDS011;10510;47.942;9.442;2023-04-25T08:23:00;6.95;;;3.05;;
11486;SDS011;10510;47.942;9.442;2023-04-25T08:25:00;5.20;;;2.17;;
11486;SDS011;10510;47.942;9.442;2023-04-25T08:27:00;5.60;;;2.53;;
11486;SDS011;10510;47.942;9.442;2023-04-25T08:29:01;6.13;;;2.55;;
11486;SDS011;10510;47.942;9.442;2023-04-25T08:31:02;2.75;;;1.90;;
11486;SDS011;10510;47.942;9.442;2023-04-25T08:33:02;5.57;;;3.60;;
11486;SDS011;10510;47.942;9.442;2023-04-25T08:35:02;7.40;;;1.85;;
11486;SDS011;10510;47.942;9.442;2023-04-25T08:37:03;1.17;;;1.00;;
11486;SDS011;10510;47.942;9.442;2023-04-25T08:39:04;1.67;;;1.10;;
11486;SDS011;10510;47.942;9.442;2023-04-25T08:41:04;5.03;;;1.20;;
11486;SDS011;10510;47.942;9.442;2023-04-25T08:43:06;3.40;;;1.08;;
11486;SDS011;10510;47.942;9.442;2023-04-25T08:45:11;2.30;;;1.10;;
11486;SDS011;10510;47.942;9.442;2023-04-25T08:47:11;1.08;;;0.85;;
11486;SDS011;10510;47.942;9.442;2023-04-25T08:49:12;1.52;;;1.00;;
11486;SDS011;10510;47.942;9.442;2023-04-25T08:51:15;1.55;;;0.90;;
11486;SDS011;10510;47.942;9.442;2023-04-25T08:53:25;1.70;;;0.60;;
11486;SDS011;10510;47.942;9.442;2023-04-25T08:55:27;1.02;;;0.80;;
11486;SDS011;10510;47.942;9.442;2023-04-25T08:57:28;0.90;;;0.60;;
11486;SDS011;10510;47.942;9.442;2023-04-25T08:59:29;0.98;;;0.68;;
11486;SDS011;10510;47.942;9.442;2023-04-25T09:01:31;1.20;;;0.80;;
11486;SDS011;10510;47.942;9.442;2023-04-25T09:03:31;0.80;;;0.50;;
11486;SDS011;10510;47.942;9.442;2023-04-25T09:05:34;1.38;;;0.65;;
11486;SDS011;10510;47.942;9.442;2023-04-25T09:07:35;1.13;;;0.85;;
11486;SDS011;10510;47.942;9.442;2023-04-25T09:09:35;4.47;;;0.80;;
11486;SDS011;10510;47.942;9.442;2023-04-25T09:11:36;1.17;;;0.80;;
11486;SDS011;10510;47.942;9.442;2023-04-25T09:13:36;1.67;;;0.68;;
11486;SDS011;10510;47.942;9.442;2023-04-25T09:15:49;1.20;;;0.80;;
11486;SDS011;10510;47.942;9.442;2023-04-25T09:17:57;1.70;;;1.00;;
11486;SDS011;10510;47.942;9.442;2023-04-25T09:20:08;0.98;;;0.90;;
11486;SDS011;10510;47.942;9.442;2023-04-25T09:22:10;1.63;;;0.93;;
11486;SDS011;10510;47.942;9.442;2023-04-25T09:24:10;1.15;;;0.80;;
11486;SDS011;10510;47.942;9.442;2023-04-25T09:26:13;0.95;;;0.70;;
11486;SDS011;10510;47.942;9.442;2023-04-25T09:28:24;2.72;;;1.08;;
11486;SDS011;10510;47.942;9.442;2023-04-25T09:30:29;1.23;;;1.10;;
11486;SDS011;10510;47.942;9.442;2023-04-25T09:32:30;2.22;;;1.05;;
11486;SDS011;10510;47.942;9.442;2023-04-25T09:34:34;1.23;;;1.00;;
11486;SDS011;10510;47.942;9.442;2023-04-25T09:38:41;1.83;;;0.98;;
11486;SDS011;10510;47.942;9.442;2023-04-25T09:40:44;1.55;;;1.10;;
11486;SDS011;10510;47.942;9.442;2023-04-25T09:42:45;2.00;;;1.08;;
11486;SDS011;10510;47.942;9.442;2023-04-25T09:44:46;1.25;;;1.00;;
11486;SDS011;10510;47.942;9.442;2023-04-25T09:46:48;2.20;;;1.15;;
11486;SDS011;10510;47.942;9.442;2023-04-25T09:48:52;3.45;;;1.27;;
11486;SDS011;10510;47.942;9.442;2023-04-25T09:53:03;1.35;;;0.90;;
11486;SDS011;10510;47.942;9.442;2023-04-25T09:55:07;1.38;;;0.82;;
11486;SDS011;10510;47.942;9.442;2023-04-25T09:57:12;2.88;;;1.00;;
11486;SDS011;10510;47.942;9.442;2023-04-25T09:59:15;0.93;;;0.85;;
11486;SDS011;10510;47.942;9.442;2023-04-25T10:01:15;2.65;;;0.95;;
11486;SDS011;10510;47.942;9.442;2023-04-25T10:03:17;1.85;;;0.88;;
11486;SDS011;10510;47.942;9.442;2023-04-25T10:05:17;0.57;;;0.50;;
11486;SDS011;10510;47.942;9.442;2023-04-25T10:07:18;1.15;;;0.57;;
11486;SDS011;10510;47.942;9.442;2023-04-25T10:09:21;0.85;;;0.73;;
11486;SDS011;10510;47.942;9.442;2023-04-25T10:11:25;1.23;;;0.80;;
11486;SDS011;10510;47.942;9.442;2023-04-25T10:13:28;4.30;;;1.42;;
11486;SDS011;10510;47.942;9.442;2023-04-25T10:15:33;2.42;;;0.80;;
11486;SDS011;10510;47.942;9.442;2023-04-25T10:17:35;1.50;;;0.80;;
11486;SDS011;10510;47.942;9.442;2023-04-25T10:19:35;0.95;;;0.50;;
11486;SDS011;10510;47.942;9.442;2023-04-25T10:21:37;2.38;;;0.70;;
11486;SDS011;10510;47.942;9.442;2023-04-25T10:23:47;0.60;;;0.50;;
11486;SDS011;10510;47.942;9.442;2023-04-25T10:25:49;2.42;;;0.90;;
11486;SDS011;10510;47.942;9.442;2023-04-25T10:27:51;0.55;;;0.38;;
11486;SDS011;10510;47.942;9.442;2023-04-25T10:30:08;2.00;;;0.65;;
11486;SDS011;10510;47.942;9.442;2023-04-25T10:32:15;0.60;;;0.50;;
11486;SDS011;10510;47.942;9.442;2023-04-25T10:34:16;1.13;;;0.70;;
11486;SDS011;10510;47.942;9.442;2023-04-25T10:36:18;0.60;;;0.50;;
11486;SDS011;10510;47.942;9.442;2023-04-25T10:38:20;1.77;;;0.90;;
11486;SDS011;10510;47.942;9.442;2023-04-25T10:40:21;0.95;;;0.70;;
11486;SDS011;10510;47.942;9.442;2023-04-25T10:42:22;1.25;;;0.80;;
11486;SDS011;10510;47.942;9.442;2023-04-25T10:44:22;1.20;;;0.80;;
11486;SDS011;10510;47.942;9.442;2023-04-25T10:46:23;1.52;;;0.85;;
11486;SDS011;10510;47.942;9.442;2023-04-25T10:48:29;3.03;;;0.80;;
11486;SDS011;10510;47.942;9.442;2023-04-25T10:50:37;0.90;;;0.77;;
11486;SDS011;10510;47.942;9.442;2023-04-25T10:54:41;1.50;;;0.80;;
11486;SDS011;10510;47.942;9.442;2023-04-25T10:56:48;1.98;;;1.48;;
11486;SDS011;10510;47.942;9.442;2023-04-25T10:58:49;1.52;;;1.25;;
11486;SDS011;10510;47.942;9.442;2023-04-25T11:00:49;0.52;;;0.50;;
11486;SDS011;10510;47.942;9.442;2023-04-25T11:02:55;2.42;;;0.65;;
11486;SDS011;10510;47.942;9.442;2023-04-25T11:04:58;1.45;;;0.95;;
11486;SDS011;10510;47.942;9.442;2023-04-25T11:09:03;0.60;;;0.50;;
11486;SDS011;10510;47.942;9.442;2023-04-25T11:11:13;0.50;;;0.50;;
11486;SDS011;10510;47.942;9.442;2023-04-25T11:13:14;1.42;;;0.55;;
11486;SDS011;10510;47.942;9.442;2023-04-25T11:15:14;0.50;;;0.50;;
11486;SDS011;10510;47.942;9.442;2023-04-25T11:17:15;0.40;;;0.40;;
11486;SDS011;10510;47.942;9.442;2023-04-25T11:19:15;0.70;;;0.52;;
11486;SDS011;10510;47.942;9.442;2023-04-25T11:21:15;2.42;;;0.82;;
11486;SDS011;10510;47.942;9.442;2023-04-25T11:23:16;0.57;;;0.50;;
11486;SDS011;10510;47.942;9.442;2023-04-25T11:25:16;4.00;;;1.77;;
11486;SDS011;10510;47.942;9.442;2023-04-25T11:27:16;0.52;;;0.43;;
11486;SDS011;10510;47.942;9.442;2023-04-25T11:29:17;0.90;;;0.40;;
11486;SDS011;10510;47.942;9.442;2023-04-25T11:31:20;1.52;;;0.80;;
11486;SDS011;10510;47.942;9.442;2023-04-25T11:33:24;0.88;;;0.80;;
11486;SDS011;10510;47.942;9.442;2023-04-25T11:35:25;0.70;;;0.70;;
11486;SDS011;10510;47.942;9.442;2023-04-25T11:37:25;0.47;;;0.47;;
11486;SDS011;10510;47.942;9.442;2023-04-25T11:39:27;0.68;;;0.63;;
11486;SDS011;10510;47.942;9.442;2023-04-25T11:41:27;0.40;;;0.30;;
11486;SDS011;10510;47.942;9.442;2023-04-25T11:43:28;0.80;;;0.57;;
11486;SDS011;10510;47.942;9.442;2023-04-25T11:45:28;0.60;;;0.60;;
11486;SDS011;10510;47.942;9.442;2023-04-25T11:47:30;1.38;;;0.80;;
11486;SDS011;10510;47.942;9.442;2023-04-25T11:49:31;0.52;;;0.50;;
11486;SDS011;10510;47.942;9.442;2023-04-25T11:51:39;1.00;;;0.80;;
11486;SDS011;10510;47.942;9.442;2023-04-25T11:53:40;0.60;;;0.50;;
11486;SDS011;10510;47.942;9.442;2023-04-25T11:55:42;1.27;;;0.63;;
11486;SDS011;10510;47.942;9.442;2023-04-25T11:57:43;4.97;;;1.50;;
11486;SDS011;10510;47.942;9.442;2023-04-25T11:59:45;4.30;;;1.05;;
11486;SDS011;10510;47.942;9.442;2023-04-25T12:01:48;1.25;;;0.60;;
11486;SDS011;10510;47.942;9.442;2023-04-25T12:03:49;1.33;;;0.80;;
11486;SDS011;10510;47.942;9.442;2023-04-25T12:05:50;2.00;;;1.10;;
11486;SDS011;10510;47.942;9.442;2023-04-25T12:07:50;1.55;;;1.08;;
11486;SDS011;10510;47.942;9.442;2023-04-25T12:09:51;1.15;;;0.80;;
11486;SDS011;10510;47.942;9.442;2023-04-25T12:11:54;0.93;;;0.50;;
11486;SDS011;10510;47.942;9.442;2023-04-25T12:13:55;2.10;;;0.38;;
11486;SDS011;10510;47.942;9.442;2023-04-25T12:15:55;0.70;;;0.55;;